Impacts TAF Board INFO
FOR SITUATIONAL AWARENESS. NOT TO BE USED FOR FLIGHT PLANNING PURPOSES.
IDs:

KDCA - Washington/National, VA, US

Issued at 2104 UTC 21 Nov 2017
Updated at 2125 UTC 21 Nov 2017
Potential Impact None Slight Moderate High
Time<<22/22Z 22/23Z 23/00Z 23/01Z 23/02Z 23/03Z 23/04Z 23/05Z 23/06Z 23/07Z 23/08Z 23/09Z 23/10Z
Type
VIS
CIG
Cover
FltCat
WX
WDir
WSpd
WGst

Raw TAF
KDCA 212104Z 2121/2218 19007KT P6SM SCT240
  FM220200 20008KT P6SM BKN090
  FM220900 25005KT 4SM -SHRA BR BKN010
  FM221200 31007KT P6SM BKN025
  FM221300 31009KT P6SM BKN050
  FM221400 32011G18KT P6SM SCT080


METAR Board
Radar Display
Forecast Discussion

FOR SITUATIONAL AWARENESS. NOT TO BE USED FOR FLIGHT PLANNING PURPOSES.